sensor_id;sensor_type;location;lat;lon;timestamp;P1;durP1;ratioP1;P2;durP2;ratioP2
74196;SDS011;62555;52.678;4.900;2023-02-01T00:01:34;6.88;;;3.05;;
74196;SDS011;62555;52.678;4.900;2023-02-01T00:04:00;6.32;;;2.47;;
74196;SDS011;62555;52.678;4.900;2023-02-01T00:06:25;8.55;;;3.15;;
74196;SDS011;62555;52.678;4.900;2023-02-01T00:08:54;8.05;;;2.63;;
74196;SDS011;62555;52.678;4.900;2023-02-01T00:11:20;10.15;;;2.53;;
74196;SDS011;62555;52.678;4.900;2023-02-01T00:13:46;7.95;;;3.45;;
74196;SDS011;62555;52.678;4.900;2023-02-01T00:16:15;8.98;;;3.03;;
74196;SDS011;62555;52.678;4.900;2023-02-01T00:18:42;7.53;;;2.55;;
74196;SDS011;62555;52.678;4.900;2023-02-01T00:21:12;9.45;;;2.65;;
74196;SDS011;62555;52.678;4.900;2023-02-01T00:23:38;6.75;;;2.42;;
74196;SDS011;62555;52.678;4.900;2023-02-01T00:26:04;9.40;;;3.17;;
74196;SDS011;62555;52.678;4.900;2023-02-01T00:30:57;5.38;;;2.22;;
74196;SDS011;62555;52.678;4.900;2023-02-01T00:33:24;10.73;;;2.72;;
74196;SDS011;62555;52.678;4.900;2023-02-01T00:35:49;9.05;;;2.55;;
74196;SDS011;62555;52.678;4.900;2023-02-01T00:38:14;8.23;;;2.53;;
74196;SDS011;62555;52.678;4.900;2023-02-01T00:40:40;9.43;;;2.50;;
74196;SDS011;62555;52.678;4.900;2023-02-01T00:43:05;12.90;;;2.63;;
74196;SDS011;62555;52.678;4.900;2023-02-01T00:45:30;6.18;;;2.08;;
74196;SDS011;62555;52.678;4.900;2023-02-01T00:47:56;8.55;;;2.33;;
74196;SDS011;62555;52.678;4.900;2023-02-01T00:50:21;8.27;;;2.60;;
74196;SDS011;62555;52.678;4.900;2023-02-01T00:52:46;7.53;;;2.72;;
74196;SDS011;62555;52.678;4.900;2023-02-01T00:55:12;9.23;;;2.53;;
74196;SDS011;62555;52.678;4.900;2023-02-01T00:57:37;10.27;;;2.67;;
74196;SDS011;62555;52.678;4.900;2023-02-01T01:00:02;8.90;;;2.70;;
74196;SDS011;62555;52.678;4.900;2023-02-01T01:02:28;8.70;;;3.08;;
74196;SDS011;62555;52.678;4.900;2023-02-01T01:04:53;11.52;;;3.78;;
74196;SDS011;62555;52.678;4.900;2023-02-01T01:07:19;9.00;;;2.78;;
74196;SDS011;62555;52.678;4.900;2023-02-01T01:09:44;13.13;;;3.53;;
74196;SDS011;62555;52.678;4.900;2023-02-01T01:12:10;7.47;;;2.72;;
74196;SDS011;62555;52.678;4.900;2023-02-01T01:14:35;9.15;;;3.15;;
74196;SDS011;62555;52.678;4.900;2023-02-01T01:17:00;8.98;;;2.55;;
74196;SDS011;62555;52.678;4.900;2023-02-01T01:19:25;8.32;;;2.90;;
74196;SDS011;62555;52.678;4.900;2023-02-01T01:21:51;8.80;;;2.60;;
74196;SDS011;62555;52.678;4.900;2023-02-01T01:24:16;10.80;;;3.92;;
74196;SDS011;62555;52.678;4.900;2023-02-01T01:26:41;7.80;;;2.53;;
74196;SDS011;62555;52.678;4.900;2023-02-01T01:29:08;10.73;;;2.85;;
74196;SDS011;62555;52.678;4.900;2023-02-01T01:31:34;8.38;;;2.53;;
74196;SDS011;62555;52.678;4.900;2023-02-01T01:33:59;6.10;;;2.13;;
74196;SDS011;62555;52.678;4.900;2023-02-01T01:36:25;10.98;;;3.25;;
74196;SDS011;62555;52.678;4.900;2023-02-01T01:38:51;8.48;;;2.72;;
74196;SDS011;62555;52.678;4.900;2023-02-01T01:41:19;9.55;;;2.40;;
74196;SDS011;62555;52.678;4.900;2023-02-01T01:43:59;7.72;;;2.67;;
74196;SDS011;62555;52.678;4.900;2023-02-01T01:51:41;7.57;;;3.13;;
74196;SDS011;62555;52.678;4.900;2023-02-01T01:54:20;13.63;;;3.35;;
74196;SDS011;62555;52.678;4.900;2023-02-01T01:56:52;10.50;;;2.40;;
74196;SDS011;62555;52.678;4.900;2023-02-01T01:59:21;10.57;;;2.92;;
74196;SDS011;62555;52.678;4.900;2023-02-01T02:01:47;10.05;;;2.50;;
74196;SDS011;62555;52.678;4.900;2023-02-01T02:04:13;6.28;;;2.45;;
74196;SDS011;62555;52.678;4.900;2023-02-01T02:06:40;12.23;;;3.10;;
74196;SDS011;62555;52.678;4.900;2023-02-01T02:09:10;10.77;;;3.83;;
74196;SDS011;62555;52.678;4.900;2023-02-01T02:11:36;8.60;;;2.60;;
74196;SDS011;62555;52.678;4.900;2023-02-01T02:14:01;10.05;;;2.60;;
74196;SDS011;62555;52.678;4.900;2023-02-01T02:22:21;10.50;;;2.55;;
74196;SDS011;62555;52.678;4.900;2023-02-01T02:53:16;9.98;;;2.47;;
74196;SDS011;62555;52.678;4.900;2023-02-01T02:56:03;9.30;;;3.03;;
74196;SDS011;62555;52.678;4.900;2023-02-01T02:58:48;11.45;;;2.97;;
74196;SDS011;62555;52.678;4.900;2023-02-01T03:01:32;9.85;;;2.70;;
74196;SDS011;62555;52.678;4.900;2023-02-01T03:04:17;11.98;;;3.10;;
74196;SDS011;62555;52.678;4.900;2023-02-01T03:06:43;7.55;;;2.85;;
74196;SDS011;62555;52.678;4.900;2023-02-01T03:09:12;9.63;;;2.53;;
74196;SDS011;62555;52.678;4.900;2023-02-01T03:11:41;11.00;;;3.30;;
74196;SDS011;62555;52.678;4.900;2023-02-01T03:14:28;10.30;;;2.50;;
74196;SDS011;62555;52.678;4.900;2023-02-01T03:16:55;8.32;;;2.60;;
74196;SDS011;62555;52.678;4.900;2023-02-01T03:19:25;9.95;;;2.47;;
74196;SDS011;62555;52.678;4.900;2023-02-01T03:21:57;10.20;;;2.90;;
74196;SDS011;62555;52.678;4.900;2023-02-01T03:27:01;10.20;;;2.85;;
74196;SDS011;62555;52.678;4.900;2023-02-01T03:29:32;8.77;;;3.03;;
74196;SDS011;62555;52.678;4.900;2023-02-01T03:32:21;10.38;;;2.58;;
74196;SDS011;62555;52.678;4.900;2023-02-01T03:34:47;9.25;;;3.47;;
74196;SDS011;62555;52.678;4.900;2023-02-01T03:37:13;8.93;;;2.63;;
74196;SDS011;62555;52.678;4.900;2023-02-01T03:39:48;12.20;;;3.53;;
74196;SDS011;62555;52.678;4.900;2023-02-01T03:42:34;9.63;;;3.30;;
74196;SDS011;62555;52.678;4.900;2023-02-01T03:45:07;9.00;;;2.60;;
74196;SDS011;62555;52.678;4.900;2023-02-01T03:47:37;12.48;;;3.35;;
74196;SDS011;62555;52.678;4.900;2023-02-01T03:50:13;8.65;;;3.17;;
74196;SDS011;62555;52.678;4.900;2023-02-01T03:52:48;13.48;;;3.80;;
74196;SDS011;62555;52.678;4.900;2023-02-01T03:55:18;11.85;;;3.38;;
74196;SDS011;62555;52.678;4.900;2023-02-01T03:57:52;7.57;;;2.50;;
74196;SDS011;62555;52.678;4.900;2023-02-01T04:00:24;8.20;;;2.70;;
74196;SDS011;62555;52.678;4.900;2023-02-01T04:02:51;8.63;;;2.42;;
74196;SDS011;62555;52.678;4.900;2023-02-01T04:05:16;8.35;;;2.70;;
74196;SDS011;62555;52.678;4.900;2023-02-01T04:07:42;6.80;;;2.38;;
74196;SDS011;62555;52.678;4.900;2023-02-01T04:10:08;9.20;;;3.00;;
74196;SDS011;62555;52.678;4.900;2023-02-01T04:12:34;8.98;;;2.88;;
74196;SDS011;62555;52.678;4.900;2023-02-01T04:14:59;7.85;;;2.85;;
74196;SDS011;62555;52.678;4.900;2023-02-01T04:17:25;7.50;;;2.67;;
74196;SDS011;62555;52.678;4.900;2023-02-01T04:19:50;11.05;;;2.28;;
74196;SDS011;62555;52.678;4.900;2023-02-01T04:22:15;7.15;;;2.45;;
74196;SDS011;62555;52.678;4.900;2023-02-01T04:24:41;10.80;;;3.10;;
74196;SDS011;62555;52.678;4.900;2023-02-01T04:27:06;8.73;;;2.67;;
74196;SDS011;62555;52.678;4.900;2023-02-01T04:29:31;10.32;;;2.55;;
74196;SDS011;62555;52.678;4.900;2023-02-01T04:31:57;9.38;;;2.60;;
74196;SDS011;62555;52.678;4.900;2023-02-01T04:34:22;8.32;;;2.83;;
74196;SDS011;62555;52.678;4.900;2023-02-01T04:36:49;7.80;;;2.10;;
74196;SDS011;62555;52.678;4.900;2023-02-01T04:39:15;7.72;;;2.35;;
74196;SDS011;62555;52.678;4.900;2023-02-01T04:41:40;9.32;;;2.35;;
74196;SDS011;62555;52.678;4.900;2023-02-01T04:44:06;7.68;;;2.05;;
74196;SDS011;62555;52.678;4.900;2023-02-01T04:46:31;6.68;;;2.65;;
74196;SDS011;62555;52.678;4.900;2023-02-01T04:48:56;10.45;;;2.97;;
74196;SDS011;62555;52.678;4.900;2023-02-01T04:51:22;8.40;;;2.58;;
74196;SDS011;62555;52.678;4.900;2023-02-01T04:53:47;6.72;;;2.58;;
74196;SDS011;62555;52.678;4.900;2023-02-01T04:56:12;7.72;;;2.50;;
74196;SDS011;62555;52.678;4.900;2023-02-01T04:58:38;9.05;;;3.15;;
74196;SDS011;62555;52.678;4.900;2023-02-01T05:01:04;9.48;;;3.13;;
74196;SDS011;62555;52.678;4.900;2023-02-01T05:03:31;6.53;;;2.63;;
74196;SDS011;62555;52.678;4.900;2023-02-01T05:05:59;7.88;;;3.00;;
74196;SDS011;62555;52.678;4.900;2023-02-01T05:08:25;7.15;;;2.25;;
74196;SDS011;62555;52.678;4.900;2023-02-01T05:10:51;8.15;;;2.55;;
74196;SDS011;62555;52.678;4.900;2023-02-01T05:13:17;7.95;;;3.13;;
74196;SDS011;62555;52.678;4.900;2023-02-01T05:16:03;6.72;;;2.28;;
74196;SDS011;62555;52.678;4.900;2023-02-01T05:18:29;7.85;;;2.35;;
74196;SDS011;62555;52.678;4.900;2023-02-01T05:20:54;9.85;;;2.75;;
74196;SDS011;62555;52.678;4.900;2023-02-01T05:23:20;8.27;;;2.05;;
74196;SDS011;62555;52.678;4.900;2023-02-01T05:25:45;9.80;;;2.67;;
74196;SDS011;62555;52.678;4.900;2023-02-01T05:28:10;7.78;;;2.90;;
74196;SDS011;62555;52.678;4.900;2023-02-01T05:30:36;5.72;;;2.03;;
74196;SDS011;62555;52.678;4.900;2023-02-01T05:33:02;7.13;;;1.88;;
74196;SDS011;62555;52.678;4.900;2023-02-01T05:35:28;6.50;;;2.33;;
74196;SDS011;62555;52.678;4.900;2023-02-01T05:37:53;9.73;;;2.55;;
74196;SDS011;62555;52.678;4.900;2023-02-01T05:40:18;6.88;;;2.45;;
74196;SDS011;62555;52.678;4.900;2023-02-01T05:42:44;8.55;;;2.22;;
74196;SDS011;62555;52.678;4.900;2023-02-01T05:45:09;4.70;;;2.08;;
74196;SDS011;62555;52.678;4.900;2023-02-01T05:47:35;6.28;;;2.05;;
74196;SDS011;62555;52.678;4.900;2023-02-01T05:50:00;7.80;;;2.03;;
74196;SDS011;62555;52.678;4.900;2023-02-01T05:52:26;6.15;;;2.60;;
74196;SDS011;62555;52.678;4.900;2023-02-01T05:54:51;6.03;;;2.15;;
74196;SDS011;62555;52.678;4.900;2023-02-01T05:57:17;6.47;;;2.35;;
74196;SDS011;62555;52.678;4.900;2023-02-01T05:59:43;5.65;;;2.20;;
74196;SDS011;62555;52.678;4.900;2023-02-01T06:02:11;6.15;;;2.47;;
74196;SDS011;62555;52.678;4.900;2023-02-01T06:04:36;7.88;;;2.30;;
74196;SDS011;62555;52.678;4.900;2023-02-01T06:07:02;7.63;;;2.20;;
74196;SDS011;62555;52.678;4.900;2023-02-01T06:09:27;6.50;;;2.10;;
74196;SDS011;62555;52.678;4.900;2023-02-01T06:11:53;5.60;;;2.15;;
74196;SDS011;62555;52.678;4.900;2023-02-01T06:14:19;8.70;;;2.63;;
74196;SDS011;62555;52.678;4.900;2023-02-01T06:16:44;5.68;;;1.73;;
74196;SDS011;62555;52.678;4.900;2023-02-01T06:19:11;6.28;;;2.53;;
74196;SDS011;62555;52.678;4.900;2023-02-01T06:21:37;4.95;;;2.03;;
74196;SDS011;62555;52.678;4.900;2023-02-01T06:24:03;4.88;;;2.03;;
74196;SDS011;62555;52.678;4.900;2023-02-01T06:26:28;7.20;;;2.70;;
74196;SDS011;62555;52.678;4.900;2023-02-01T06:28:54;7.32;;;2.15;;
74196;SDS011;62555;52.678;4.900;2023-02-01T06:31:20;5.38;;;2.05;;
74196;SDS011;62555;52.678;4.900;2023-02-01T06:33:45;5.70;;;2.08;;
74196;SDS011;62555;52.678;4.900;2023-02-01T06:36:12;6.53;;;1.95;;
74196;SDS011;62555;52.678;4.900;2023-02-01T06:38:38;7.28;;;2.20;;
74196;SDS011;62555;52.678;4.900;2023-02-01T06:41:04;8.30;;;2.53;;
74196;SDS011;62555;52.678;4.900;2023-02-01T06:43:30;6.18;;;2.20;;
74196;SDS011;62555;52.678;4.900;2023-02-01T06:46:01;8.18;;;2.55;;
74196;SDS011;62555;52.678;4.900;2023-02-01T06:48:27;7.60;;;2.05;;
74196;SDS011;62555;52.678;4.900;2023-02-01T06:50:53;7.45;;;1.98;;
74196;SDS011;62555;52.678;4.900;2023-02-01T06:53:18;11.15;;;2.13;;
74196;SDS011;62555;52.678;4.900;2023-02-01T06:55:57;5.00;;;2.40;;
74196;SDS011;62555;52.678;4.900;2023-02-01T06:58:23;5.50;;;1.90;;
74196;SDS011;62555;52.678;4.900;2023-02-01T07:00:49;5.32;;;1.77;;
74196;SDS011;62555;52.678;4.900;2023-02-01T07:03:15;5.45;;;1.95;;
74196;SDS011;62555;52.678;4.900;2023-02-01T07:05:40;6.35;;;2.13;;
74196;SDS011;62555;52.678;4.900;2023-02-01T07:08:05;5.38;;;2.50;;
74196;SDS011;62555;52.678;4.900;2023-02-01T07:10:31;6.57;;;2.33;;
74196;SDS011;62555;52.678;4.900;2023-02-01T07:12:57;7.47;;;1.83;;
74196;SDS011;62555;52.678;4.900;2023-02-01T07:15:22;4.65;;;2.30;;
74196;SDS011;62555;52.678;4.900;2023-02-01T07:17:48;5.25;;;1.70;;
74196;SDS011;62555;52.678;4.900;2023-02-01T07:20:14;4.30;;;1.95;;
74196;SDS011;62555;52.678;4.900;2023-02-01T07:22:39;8.20;;;1.95;;
74196;SDS011;62555;52.678;4.900;2023-02-01T07:25:05;5.38;;;1.58;;
74196;SDS011;62555;52.678;4.900;2023-02-01T07:27:33;6.43;;;1.80;;
74196;SDS011;62555;52.678;4.900;2023-02-01T07:29:59;8.45;;;2.38;;
74196;SDS011;62555;52.678;4.900;2023-02-01T07:32:26;7.20;;;1.90;;
74196;SDS011;62555;52.678;4.900;2023-02-01T07:34:52;6.28;;;2.10;;
74196;SDS011;62555;52.678;4.900;2023-02-01T07:37:17;6.53;;;1.95;;
74196;SDS011;62555;52.678;4.900;2023-02-01T07:39:43;5.80;;;1.80;;
74196;SDS011;62555;52.678;4.900;2023-02-01T07:42:08;7.30;;;1.98;;
74196;SDS011;62555;52.678;4.900;2023-02-01T07:44:34;6.63;;;1.90;;
74196;SDS011;62555;52.678;4.900;2023-02-01T07:46:59;6.72;;;2.20;;
74196;SDS011;62555;52.678;4.900;2023-02-01T07:49:24;4.57;;;1.70;;
74196;SDS011;62555;52.678;4.900;2023-02-01T07:51:50;8.65;;;2.55;;
74196;SDS011;62555;52.678;4.900;2023-02-01T07:54:15;4.50;;;1.40;;
74196;SDS011;62555;52.678;4.900;2023-02-01T07:56:41;6.50;;;2.20;;
74196;SDS011;62555;52.678;4.900;2023-02-01T07:59:06;8.35;;;2.25;;
74196;SDS011;62555;52.678;4.900;2023-02-01T08:01:32;4.10;;;1.30;;
74196;SDS011;62555;52.678;4.900;2023-02-01T08:03:59;6.78;;;2.20;;
74196;SDS011;62555;52.678;4.900;2023-02-01T08:08:52;8.73;;;1.88;;
74196;SDS011;62555;52.678;4.900;2023-02-01T08:11:18;7.25;;;1.92;;
74196;SDS011;62555;52.678;4.900;2023-02-01T08:13:43;5.13;;;1.80;;
74196;SDS011;62555;52.678;4.900;2023-02-01T08:16:10;6.32;;;2.00;;
74196;SDS011;62555;52.678;4.900;2023-02-01T08:18:36;5.78;;;2.25;;
74196;SDS011;62555;52.678;4.900;2023-02-01T08:21:03;5.55;;;1.88;;
74196;SDS011;62555;52.678;4.900;2023-02-01T08:23:39;5.82;;;1.63;;
74196;SDS011;62555;52.678;4.900;2023-02-01T08:26:09;7.43;;;2.03;;
74196;SDS011;62555;52.678;4.900;2023-02-01T08:28:46;5.90;;;2.08;;
74196;SDS011;62555;52.678;4.900;2023-02-01T08:31:16;6.30;;;2.20;;
74196;SDS011;62555;52.678;4.900;2023-02-01T08:33:43;5.25;;;1.90;;
74196;SDS011;62555;52.678;4.900;2023-02-01T08:36:12;5.60;;;2.05;;
74196;SDS011;62555;52.678;4.900;2023-02-01T08:38:38;7.40;;;1.90;;
74196;SDS011;62555;52.678;4.900;2023-02-01T08:41:08;5.40;;;1.67;;
74196;SDS011;62555;52.678;4.900;2023-02-01T08:43:35;7.25;;;2.72;;
74196;SDS011;62555;52.678;4.900;2023-02-01T08:46:01;6.30;;;1.88;;
74196;SDS011;62555;52.678;4.900;2023-02-01T08:48:27;6.55;;;2.00;;
74196;SDS011;62555;52.678;4.900;2023-02-01T08:50:52;6.55;;;2.03;;
74196;SDS011;62555;52.678;4.900;2023-02-01T08:53:17;4.45;;;1.70;;
74196;SDS011;62555;52.678;4.900;2023-02-01T08:55:44;4.88;;;2.15;;
74196;SDS011;62555;52.678;4.900;2023-02-01T08:58:10;7.75;;;2.42;;
74196;SDS011;62555;52.678;4.900;2023-02-01T09:00:36;5.32;;;2.00;;
74196;SDS011;62555;52.678;4.900;2023-02-01T09:03:01;6.40;;;2.20;;
74196;SDS011;62555;52.678;4.900;2023-02-01T09:05:27;6.72;;;2.10;;
74196;SDS011;62555;52.678;4.900;2023-02-01T09:07:53;5.13;;;1.85;;
74196;SDS011;62555;52.678;4.900;2023-02-01T09:10:18;7.03;;;2.15;;
74196;SDS011;62555;52.678;4.900;2023-02-01T09:12:44;8.93;;;2.45;;
74196;SDS011;62555;52.678;4.900;2023-02-01T09:15:09;7.75;;;2.08;;
74196;SDS011;62555;52.678;4.900;2023-02-01T09:17:35;6.57;;;1.88;;
74196;SDS011;62555;52.678;4.900;2023-02-01T09:20:00;4.40;;;1.77;;
74196;SDS011;62555;52.678;4.900;2023-02-01T09:22:26;7.63;;;2.63;;
74196;SDS011;62555;52.678;4.900;2023-02-01T09:24:51;3.85;;;1.50;;
74196;SDS011;62555;52.678;4.900;2023-02-01T09:27:17;5.80;;;1.90;;
74196;SDS011;62555;52.678;4.900;2023-02-01T09:29:43;5.15;;;1.92;;
74196;SDS011;62555;52.678;4.900;2023-02-01T09:32:08;4.55;;;1.85;;
74196;SDS011;62555;52.678;4.900;2023-02-01T09:34:34;8.07;;;2.35;;
74196;SDS011;62555;52.678;4.900;2023-02-01T09:37:00;6.88;;;3.03;;
74196;SDS011;62555;52.678;4.900;2023-02-01T09:39:25;6.32;;;1.90;;
74196;SDS011;62555;52.678;4.900;2023-02-01T09:41:54;5.60;;;2.00;;
74196;SDS011;62555;52.678;4.900;2023-02-01T09:47:09;9.10;;;2.40;;
74196;SDS011;62555;52.678;4.900;2023-02-01T09:49:37;4.97;;;2.05;;
74196;SDS011;62555;52.678;4.900;2023-02-01T09:52:10;7.88;;;2.20;;
74196;SDS011;62555;52.678;4.900;2023-02-01T09:54:42;4.97;;;1.85;;
74196;SDS011;62555;52.678;4.900;2023-02-01T09:57:23;6.40;;;1.92;;
74196;SDS011;62555;52.678;4.900;2023-02-01T10:02:23;6.25;;;1.90;;
74196;SDS011;62555;52.678;4.900;2023-02-01T10:04:50;5.50;;;1.80;;
74196;SDS011;62555;52.678;4.900;2023-02-01T10:07:25;4.90;;;1.98;;
74196;SDS011;62555;52.678;4.900;2023-02-01T10:10:09;6.90;;;2.45;;
74196;SDS011;62555;52.678;4.900;2023-02-01T10:12:49;5.03;;;2.10;;
74196;SDS011;62555;52.678;4.900;2023-02-01T10:18:37;6.65;;;1.98;;
74196;SDS011;62555;52.678;4.900;2023-02-01T10:26:29;9.43;;;2.80;;
74196;SDS011;62555;52.678;4.900;2023-02-01T10:28:58;8.05;;;2.78;;
74196;SDS011;62555;52.678;4.900;2023-02-01T10:31:26;7.45;;;2.80;;
74196;SDS011;62555;52.678;4.900;2023-02-01T10:33:58;4.20;;;1.80;;
74196;SDS011;62555;52.678;4.900;2023-02-01T10:38:52;9.88;;;2.38;;
74196;SDS011;62555;52.678;4.900;2023-02-01T10:41:19;6.68;;;2.30;;
74196;SDS011;62555;52.678;4.900;2023-02-01T10:43:47;6.25;;;2.42;;
74196;SDS011;62555;52.678;4.900;2023-02-01T10:46:14;7.13;;;2.30;;
74196;SDS011;62555;52.678;4.900;2023-02-01T10:48:39;8.25;;;2.70;;
74196;SDS011;62555;52.678;4.900;2023-02-01T10:51:06;8.98;;;2.45;;
74196;SDS011;62555;52.678;4.900;2023-02-01T10:56:11;5.10;;;1.98;;
74196;SDS011;62555;52.678;4.900;2023-02-01T10:58:43;7.57;;;2.60;;
74196;SDS011;62555;52.678;4.900;2023-02-01T11:01:15;4.55;;;1.83;;
74196;SDS011;62555;52.678;4.900;2023-02-01T11:03:55;9.63;;;2.00;;
74196;SDS011;62555;52.678;4.900;2023-02-01T11:06:24;4.82;;;1.80;;
74196;SDS011;62555;52.678;4.900;2023-02-01T11:09:00;7.25;;;1.92;;
74196;SDS011;62555;52.678;4.900;2023-02-01T11:14:15;7.83;;;2.13;;
74196;SDS011;62555;52.678;4.900;2023-02-01T11:16:46;7.57;;;2.70;;
74196;SDS011;62555;52.678;4.900;2023-02-01T11:19:14;7.47;;;2.40;;
74196;SDS011;62555;52.678;4.900;2023-02-01T11:21:41;8.63;;;2.30;;
74196;SDS011;62555;52.678;4.900;2023-02-01T11:24:11;7.13;;;2.40;;
74196;SDS011;62555;52.678;4.900;2023-02-01T11:26:47;7.57;;;2.03;;
74196;SDS011;62555;52.678;4.900;2023-02-01T11:29:13;7.35;;;2.45;;
74196;SDS011;62555;52.678;4.900;2023-02-01T11:31:42;8.02;;;2.35;;
74196;SDS011;62555;52.678;4.900;2023-02-01T11:34:11;6.18;;;2.20;;
74196;SDS011;62555;52.678;4.900;2023-02-01T11:36:41;7.53;;;2.40;;
74196;SDS011;62555;52.678;4.900;2023-02-01T11:39:29;8.95;;;2.22;;
74196;SDS011;62555;52.678;4.900;2023-02-01T11:41:58;8.68;;;2.25;;
74196;SDS011;62555;52.678;4.900;2023-02-01T11:44:31;6.60;;;2.40;;
74196;SDS011;62555;52.678;4.900;2023-02-01T11:50:05;5.82;;;2.10;;
74196;SDS011;62555;52.678;4.900;2023-02-01T11:53:00;8.52;;;2.15;;
74196;SDS011;62555;52.678;4.900;2023-02-01T12:06:51;7.10;;;2.88;;
74196;SDS011;62555;52.678;4.900;2023-02-01T12:27:47;8.60;;;2.25;;
74196;SDS011;62555;52.678;4.900;2023-02-01T12:33:16;5.75;;;1.80;;
74196;SDS011;62555;52.678;4.900;2023-02-01T12:38:58;8.80;;;2.97;;
74196;SDS011;62555;52.678;4.900;2023-02-01T12:41:49;6.25;;;1.85;;
74196;SDS011;62555;52.678;4.900;2023-02-01T12:46:51;6.18;;;1.92;;
74196;SDS011;62555;52.678;4.900;2023-02-01T12:49:19;6.75;;;3.03;;
74196;SDS011;62555;52.678;4.900;2023-02-01T12:51:57;7.57;;;2.50;;
74196;SDS011;62555;52.678;4.900;2023-02-01T12:57:38;9.25;;;2.85;;
74196;SDS011;62555;52.678;4.900;2023-02-01T13:05:23;7.45;;;2.03;;
74196;SDS011;62555;52.678;4.900;2023-02-01T13:07:56;7.05;;;1.77;;
74196;SDS011;62555;52.678;4.900;2023-02-01T13:12:54;4.53;;;1.97;;
74196;SDS011;62555;52.678;4.900;2023-02-01T13:17:54;6.68;;;1.75;;
74196;SDS011;62555;52.678;4.900;2023-02-01T13:20:41;6.55;;;2.25;;
74196;SDS011;62555;52.678;4.900;2023-02-01T13:23:18;5.97;;;2.45;;
74196;SDS011;62555;52.678;4.900;2023-02-01T13:25:49;6.00;;;2.72;;
74196;SDS011;62555;52.678;4.900;2023-02-01T13:31:10;5.18;;;2.38;;
74196;SDS011;62555;52.678;4.900;2023-02-01T13:42:25;4.90;;;1.80;;
74196;SDS011;62555;52.678;4.900;2023-02-01T13:45:03;7.60;;;2.38;;
74196;SDS011;62555;52.678;4.900;2023-02-01T13:47:42;5.82;;;1.67;;
74196;SDS011;62555;52.678;4.900;2023-02-01T13:52:57;7.15;;;1.80;;
74196;SDS011;62555;52.678;4.900;2023-02-01T13:55:34;6.10;;;2.78;;
74196;SDS011;62555;52.678;4.900;2023-02-01T14:00:37;6.80;;;2.45;;
74196;SDS011;62555;52.678;4.900;2023-02-01T14:13:34;6.07;;;1.88;;
74196;SDS011;62555;52.678;4.900;2023-02-01T14:24:02;7.13;;;1.92;;
74196;SDS011;62555;52.678;4.900;2023-02-01T14:26:40;6.40;;;2.15;;
74196;SDS011;62555;52.678;4.900;2023-02-01T14:31:43;6.10;;;2.00;;
74196;SDS011;62555;52.678;4.900;2023-02-01T14:34:15;4.97;;;1.77;;
74196;SDS011;62555;52.678;4.900;2023-02-01T14:39:23;5.38;;;1.98;;
74196;SDS011;62555;52.678;4.900;2023-02-01T14:41:53;3.47;;;1.40;;
74196;SDS011;62555;52.678;4.900;2023-02-01T14:44:25;3.53;;;2.00;;
74196;SDS011;62555;52.678;4.900;2023-02-01T14:49:47;5.95;;;1.90;;
74196;SDS011;62555;52.678;4.900;2023-02-01T14:52:17;7.30;;;1.92;;
74196;SDS011;62555;52.678;4.900;2023-02-01T14:54:55;5.78;;;1.98;;
74196;SDS011;62555;52.678;4.900;2023-02-01T14:57:25;5.40;;;1.67;;
74196;SDS011;62555;52.678;4.900;2023-02-01T14:59:53;4.25;;;1.70;;
74196;SDS011;62555;52.678;4.900;2023-02-01T15:02:25;5.85;;;2.05;;
74196;SDS011;62555;52.678;4.900;2023-02-01T15:04:55;4.35;;;1.85;;
74196;SDS011;62555;52.678;4.900;2023-02-01T15:07:21;4.47;;;1.90;;
74196;SDS011;62555;52.678;4.900;2023-02-01T15:09:49;6.57;;;1.60;;
74196;SDS011;62555;52.678;4.900;2023-02-01T15:12:22;5.22;;;1.42;;
74196;SDS011;62555;52.678;4.900;2023-02-01T15:15:12;4.75;;;1.52;;
74196;SDS011;62555;52.678;4.900;2023-02-01T15:17:39;4.72;;;1.67;;
74196;SDS011;62555;52.678;4.900;2023-02-01T15:20:19;6.50;;;1.90;;
74196;SDS011;62555;52.678;4.900;2023-02-01T15:25:23;4.25;;;1.55;;
74196;SDS011;62555;52.678;4.900;2023-02-01T15:27:49;5.70;;;1.92;;
74196;SDS011;62555;52.678;4.900;2023-02-01T15:30:20;6.10;;;1.70;;
74196;SDS011;62555;52.678;4.900;2023-02-01T15:32:47;5.97;;;1.90;;
74196;SDS011;62555;52.678;4.900;2023-02-01T15:35:33;5.82;;;1.80;;
74196;SDS011;62555;52.678;4.900;2023-02-01T15:43:21;4.38;;;1.77;;
74196;SDS011;62555;52.678;4.900;2023-02-01T15:45:47;5.88;;;1.98;;
74196;SDS011;62555;52.678;4.900;2023-02-01T15:48:15;5.07;;;1.80;;
74196;SDS011;62555;52.678;4.900;2023-02-01T15:50:46;2.92;;;1.15;;
74196;SDS011;62555;52.678;4.900;2023-02-01T15:53:16;4.85;;;2.00;;
74196;SDS011;62555;52.678;4.900;2023-02-01T15:55:44;4.88;;;1.60;;
74196;SDS011;62555;52.678;4.900;2023-02-01T15:58:18;7.13;;;2.28;;
74196;SDS011;62555;52.678;4.900;2023-02-01T16:00:55;5.03;;;1.60;;
74196;SDS011;62555;52.678;4.900;2023-02-01T16:03:25;3.90;;;1.63;;
74196;SDS011;62555;52.678;4.900;2023-02-01T16:06:01;5.10;;;2.13;;
74196;SDS011;62555;52.678;4.900;2023-02-01T16:08:28;4.45;;;1.60;;
74196;SDS011;62555;52.678;4.900;2023-02-01T16:11:13;7.82;;;1.65;;
74196;SDS011;62555;52.678;4.900;2023-02-01T16:13:45;2.42;;;1.33;;
74196;SDS011;62555;52.678;4.900;2023-02-01T16:16:10;3.28;;;1.65;;
74196;SDS011;62555;52.678;4.900;2023-02-01T16:18:39;4.38;;;1.50;;
74196;SDS011;62555;52.678;4.900;2023-02-01T16:21:05;3.55;;;1.42;;
74196;SDS011;62555;52.678;4.900;2023-02-01T16:25:58;6.27;;;1.73;;
74196;SDS011;62555;52.678;4.900;2023-02-01T16:28:23;4.72;;;1.67;;
74196;SDS011;62555;52.678;4.900;2023-02-01T16:30:48;5.72;;;2.05;;
74196;SDS011;62555;52.678;4.900;2023-02-01T16:33:16;4.78;;;2.17;;
74196;SDS011;62555;52.678;4.900;2023-02-01T16:35:45;4.80;;;1.33;;
74196;SDS011;62555;52.678;4.900;2023-02-01T16:38:11;5.00;;;1.30;;
74196;SDS011;62555;52.678;4.900;2023-02-01T16:40:38;4.28;;;1.67;;
74196;SDS011;62555;52.678;4.900;2023-02-01T16:43:07;3.90;;;1.60;;
74196;SDS011;62555;52.678;4.900;2023-02-01T16:45:37;2.58;;;1.23;;
74196;SDS011;62555;52.678;4.900;2023-02-01T16:48:05;5.07;;;1.48;;
74196;SDS011;62555;52.678;4.900;2023-02-01T16:50:30;4.32;;;2.10;;
74196;SDS011;62555;52.678;4.900;2023-02-01T16:52:57;5.13;;;1.40;;
74196;SDS011;62555;52.678;4.900;2023-02-01T16:55:22;4.63;;;1.58;;
74196;SDS011;62555;52.678;4.900;2023-02-01T16:57:47;4.00;;;1.48;;
74196;SDS011;62555;52.678;4.900;2023-02-01T17:00:13;4.68;;;1.85;;
74196;SDS011;62555;52.678;4.900;2023-02-01T17:02:40;5.70;;;2.00;;
74196;SDS011;62555;52.678;4.900;2023-02-01T17:05:07;4.55;;;1.70;;
74196;SDS011;62555;52.678;4.900;2023-02-01T17:07:33;5.03;;;1.65;;
74196;SDS011;62555;52.678;4.900;2023-02-01T17:09:58;6.72;;;1.63;;
74196;SDS011;62555;52.678;4.900;2023-02-01T17:12:25;5.68;;;1.63;;
74196;SDS011;62555;52.678;4.900;2023-02-01T17:14:52;5.75;;;1.65;;
74196;SDS011;62555;52.678;4.900;2023-02-01T17:17:18;5.65;;;1.98;;
74196;SDS011;62555;52.678;4.900;2023-02-01T17:19:48;5.88;;;1.42;;
74196;SDS011;62555;52.678;4.900;2023-02-01T17:22:21;4.35;;;1.90;;
74196;SDS011;62555;52.678;4.900;2023-02-01T17:24:47;5.00;;;1.50;;
74196;SDS011;62555;52.678;4.900;2023-02-01T17:27:14;4.65;;;1.58;;
74196;SDS011;62555;52.678;4.900;2023-02-01T17:29:40;3.78;;;1.58;;
74196;SDS011;62555;52.678;4.900;2023-02-01T17:32:06;4.90;;;1.75;;
74196;SDS011;62555;52.678;4.900;2023-02-01T17:34:41;3.95;;;1.33;;
74196;SDS011;62555;52.678;4.900;2023-02-01T17:37:08;3.72;;;1.50;;
74196;SDS011;62555;52.678;4.900;2023-02-01T17:39:45;4.00;;;1.80;;
74196;SDS011;62555;52.678;4.900;2023-02-01T17:42:19;4.07;;;1.38;;
74196;SDS011;62555;52.678;4.900;2023-02-01T17:44:45;5.53;;;1.83;;
74196;SDS011;62555;52.678;4.900;2023-02-01T17:47:10;4.15;;;1.45;;
74196;SDS011;62555;52.678;4.900;2023-02-01T17:49:35;6.10;;;1.30;;
74196;SDS011;62555;52.678;4.900;2023-02-01T17:52:02;3.13;;;1.17;;